Disclaimer

Please do not use the information listed here in-flight or in-navigation, as they are not provided to us by the airports but are provided by volunteers, so they might be outdated.

Search


Regions


Airport information page

Radio informations:
MONTREAL CNTR - 132.9 MHz
AWOS - 124.6 MHz
MF - 122.2 MHz

Airport informations:
Latitude: 54° 48' 19.00" N
Longitude: 066° 48' 19.00" W
Elevation: 1709 feet - 521 meters
Operating hours: N/A
Operating agency: Civil government, landing fees and diplomatic clearance may be required
Timezone: Second Sunday in March at 0200 to first Sunday in November at 0200 local time (Exception Arizona and that portion of Indiana in the Eastern Time Zone)
Fuel: JP-4, Wide cut turbine fuel MIL Spec T-5624

100/130 MIL Spec, low lead, aviation gasoline (BLUE)

Runway information:
18/36 - 5000 x 150 feet< - >1524 x 46 meters

Recent METARs:
CYKL 181716Z AUTO 28009G20KT 9SM BKN021 OVC035 M13/M17 A2982 RMK SLP146
CYKL 181716Z AUTO 28009G20KT 9SM BKN021 OVC035 M13/M17 A2982 RMK SLP146
CYKL 181834Z AUTO 27014KT 9SM BKN021 OVC042 M15/M18 A2985 RMK SLP158

Airport on the map: